createdAt,value
2023-02-26T00:01:44.932Z,158.27
2023-02-26T00:04:14.723Z,168.93
2023-02-26T00:06:53.230Z,230.80
2023-02-26T00:09:24.366Z,221.82
2023-02-26T00:11:53.192Z,213.13
2023-02-26T00:14:22.137Z,271.20
2023-02-26T00:16:57.057Z,209.32
2023-02-26T00:19:27.409Z,258.80
2023-02-26T00:21:56.440Z,277.67
2023-02-26T00:24:24.877Z,184.60
2023-02-26T00:26:53.296Z,208.27
2023-02-26T00:29:22.225Z,190.75
2023-02-26T00:31:51.317Z,111.88
2023-02-26T00:34:20.668Z,108.25
2023-02-26T00:36:53.605Z,138.27
2023-02-26T00:39:36.883Z,199.10
2023-02-26T00:42:06.017Z,130.10
2023-02-26T00:44:35.180Z,166.77
2023-02-26T00:47:11.216Z,153.70
2023-02-26T00:49:50.581Z,169.00
2023-02-26T00:52:27.710Z,192.00
2023-02-26T00:54:56.072Z,184.60
2023-02-26T00:57:24.432Z,234.65
2023-02-26T00:59:52.820Z,176.82
2023-02-26T01:02:21.383Z,210.70
2023-02-26T01:04:50.433Z,203.15
2023-02-26T01:07:23.943Z,191.32
2023-02-26T01:09:53.179Z,173.57
2023-02-26T01:12:22.186Z,141.90
2023-02-26T01:14:52.278Z,225.63
2023-02-26T01:17:24.902Z,196.80
2023-02-26T01:19:55.804Z,106.82
2023-02-26T01:22:30.523Z,153.27
2023-02-26T01:27:29.817Z,110.32
2023-02-26T01:29:58.689Z,183.88
2023-02-26T01:32:43.351Z,176.18
2023-02-26T01:35:19.083Z,180.10
2023-02-26T01:37:55.116Z,181.60
2023-02-26T01:40:53.435Z,104.75
2023-02-26T01:43:26.132Z,165.13
2023-02-26T01:45:58.698Z,130.90
2023-02-26T01:48:37.421Z,211.23
2023-02-26T01:51:06.333Z,108.57
2023-02-26T01:53:36.253Z,172.45
2023-02-26T01:56:07.518Z,142.95
2023-02-26T01:58:37.173Z,200.88
2023-02-26T02:01:06.085Z,233.45
2023-02-26T02:03:38.802Z,177.85
2023-02-26T02:06:09.795Z,124.82
2023-02-26T02:08:40.182Z,192.75
2023-02-26T02:11:11.397Z,136.60
2023-02-26T02:13:49.707Z,177.02
2023-02-26T02:16:24.847Z,94.45
2023-02-26T02:18:58.855Z,218.30
2023-02-26T02:21:47.861Z,145.02
2023-02-26T02:24:24.641Z,136.50
2023-02-26T02:27:00.040Z,175.40
2023-02-26T02:30:00.871Z,231.32
2023-02-26T02:32:34.750Z,218.38
2023-02-26T02:35:08.605Z,270.17
2023-02-26T02:37:40.234Z,129.48
2023-02-26T02:40:12.306Z,120.57
2023-02-26T02:42:44.151Z,120.93
2023-02-26T02:45:16.684Z,160.98
2023-02-26T02:47:49.825Z,92.53
2023-02-26T02:50:23.532Z,170.60
2023-02-26T02:52:55.610Z,154.98
2023-02-26T02:55:27.027Z,125.07
2023-02-26T02:58:00.627Z,298.35
2023-02-26T03:00:31.327Z,252.15
2023-02-26T03:03:05.653Z,171.15
2023-02-26T03:05:34.189Z,341.30
2023-02-26T03:08:12.037Z,201.07
2023-02-26T03:10:40.843Z,159.50
2023-02-26T03:13:16.835Z,286.52
2023-02-26T03:15:53.430Z,306.75
2023-02-26T03:18:32.918Z,357.73
2023-02-26T03:21:07.896Z,274.88
2023-02-26T03:23:40.208Z,180.43
2023-02-26T03:26:13.230Z,164.93
2023-02-26T03:28:46.475Z,140.48
2023-02-26T03:31:19.264Z,105.05
2023-02-26T03:33:54.600Z,102.40
2023-02-26T03:36:25.963Z,318.25
2023-02-26T03:38:58.495Z,276.65
2023-02-26T03:41:41.028Z,323.50
2023-02-26T03:44:13.840Z,162.38
2023-02-26T03:46:46.029Z,172.93
2023-02-26T03:49:19.086Z,182.57
2023-02-26T03:51:48.611Z,184.95
2023-02-26T03:54:21.099Z,217.07
2023-02-26T03:56:50.253Z,289.48
2023-02-26T03:59:19.563Z,242.50
2023-02-26T04:01:52.253Z,277.85
2023-02-26T04:04:25.174Z,266.52
2023-02-26T04:06:53.668Z,315.35
2023-02-26T04:09:22.684Z,244.20
2023-02-26T04:11:52.151Z,366.50
2023-02-26T04:14:20.539Z,344.35
2023-02-26T04:16:49.216Z,165.00
2023-02-26T04:19:17.653Z,205.88
2023-02-26T04:21:47.826Z,443.88
2023-02-26T04:24:16.567Z,140.93
2023-02-26T04:26:45.499Z,247.93
2023-02-26T04:29:13.857Z,146.07
2023-02-26T04:31:42.448Z,256.50
2023-02-26T04:34:10.793Z,302.25
2023-02-26T04:36:39.327Z,326.90
2023-02-26T04:39:10.773Z,369.88
2023-02-26T04:41:39.610Z,345.95
2023-02-26T04:44:08.475Z,392.08
2023-02-26T04:46:36.845Z,338.83
2023-02-26T04:49:05.536Z,378.90
2023-02-26T04:51:33.890Z,207.60
2023-02-26T04:54:02.258Z,144.73
2023-02-26T04:56:32.609Z,421.60
2023-02-26T04:59:01.036Z,320.50
2023-02-26T05:01:29.459Z,402.42
2023-02-26T05:03:57.909Z,301.48
2023-02-26T05:06:26.547Z,195.40
2023-02-26T05:08:55.431Z,217.75
2023-02-26T05:11:23.815Z,202.65
2023-02-26T05:13:53.628Z,179.70
2023-02-26T05:16:22.050Z,255.57
2023-02-26T05:18:50.763Z,287.20
2023-02-26T05:21:19.224Z,354.70
2023-02-26T05:23:47.708Z,254.27
2023-02-26T05:26:16.136Z,264.83
2023-02-26T05:28:45.832Z,309.58
2023-02-26T05:31:15.885Z,219.13
2023-02-26T05:33:44.895Z,222.52
2023-02-26T05:36:13.787Z,199.80
2023-02-26T05:38:42.142Z,219.45
2023-02-26T05:41:10.618Z,223.88
2023-02-26T05:43:39.612Z,397.98
2023-02-26T05:46:08.111Z,230.70
2023-02-26T05:48:37.912Z,250.35
2023-02-26T05:51:06.707Z,362.42
2023-02-26T05:53:35.066Z,290.20
2023-02-26T05:56:03.528Z,336.57
2023-02-26T05:58:33.950Z,323.53
2023-02-26T06:01:02.601Z,199.27
2023-02-26T06:03:31.071Z,341.00
2023-02-26T06:06:00.774Z,432.10
2023-02-26T06:08:29.311Z,361.92
2023-02-26T06:10:57.816Z,452.40
2023-02-26T06:13:26.224Z,322.50
2023-02-26T06:15:54.814Z,407.53
2023-02-26T06:18:23.668Z,321.47
2023-02-26T06:20:52.079Z,438.67
2023-02-26T06:23:28.270Z,443.90
2023-02-26T06:25:56.663Z,387.77
2023-02-26T06:28:28.742Z,447.83
2023-02-26T06:30:57.414Z,491.87
2023-02-26T06:33:26.283Z,412.97
2023-02-26T06:35:55.964Z,434.73
2023-02-26T06:38:25.955Z,433.80
2023-02-26T06:40:54.336Z,423.30
2023-02-26T06:43:22.806Z,464.33
2023-02-26T06:45:51.562Z,461.08
2023-02-26T06:48:20.015Z,385.33
2023-02-26T06:50:48.569Z,406.40
2023-02-26T06:53:17.079Z,477.90
2023-02-26T06:55:48.241Z,297.83
2023-02-26T06:58:16.673Z,337.13
2023-02-26T07:00:45.150Z,364.37
2023-02-26T07:03:15.971Z,390.10
2023-02-26T07:05:44.732Z,348.03
2023-02-26T07:08:13.923Z,449.37
2023-02-26T07:10:42.867Z,357.40
2023-02-26T07:13:13.376Z,391.33
2023-02-26T07:15:46.381Z,339.50
2023-02-26T07:18:14.828Z,386.27
2023-02-26T07:20:45.020Z,452.90
2023-02-26T07:23:13.701Z,425.33
2023-02-26T07:25:42.158Z,417.83
2023-02-26T07:28:12.049Z,345.17
2023-02-26T07:30:42.403Z,425.97
2023-02-26T07:33:13.538Z,474.77
2023-02-26T07:35:42.166Z,329.17
2023-02-26T07:38:10.487Z,440.35
2023-02-26T07:40:38.820Z,416.23
2023-02-26T07:43:07.373Z,417.98
2023-02-26T07:45:37.376Z,364.17
2023-02-26T07:48:05.822Z,254.10
2023-02-26T07:50:34.892Z,373.42
2023-02-26T07:53:03.509Z,244.10
2023-02-26T07:55:31.951Z,274.85
2023-02-26T07:58:00.417Z,227.30
2023-02-26T08:00:28.936Z,395.63
2023-02-26T08:02:58.837Z,348.23
2023-02-26T08:05:29.863Z,289.85
2023-02-26T08:08:02.086Z,372.88
2023-02-26T08:10:30.683Z,253.65
2023-02-26T08:13:00.207Z,197.63
2023-02-26T08:15:28.743Z,235.97
2023-02-26T08:17:58.483Z,234.57
2023-02-26T08:20:27.101Z,289.30
2023-02-26T08:22:55.545Z,293.60
2023-02-26T08:25:23.963Z,412.83
2023-02-26T08:27:52.400Z,433.40
2023-02-26T08:30:21.441Z,421.50
2023-02-26T08:32:50.123Z,414.50
2023-02-26T08:35:20.205Z,230.10
2023-02-26T08:37:48.586Z,236.93
2023-02-26T08:40:17.302Z,103.10
2023-02-26T08:42:45.785Z,151.30
2023-02-26T08:45:14.166Z,205.57
2023-02-26T08:47:55.581Z,288.25
2023-02-26T08:50:26.906Z,230.23
2023-02-26T08:52:55.664Z,217.75
2023-02-26T08:55:24.587Z,266.65
2023-02-26T08:57:52.961Z,139.32
2023-02-26T09:00:22.068Z,171.32
2023-02-26T09:02:50.912Z,329.25
2023-02-26T09:05:19.620Z,209.50
2023-02-26T09:07:49.755Z,146.32
2023-02-26T09:10:18.641Z,110.03
2023-02-26T09:12:47.624Z,230.63
2023-02-26T09:15:16.383Z,114.15
2023-02-26T09:17:44.989Z,328.45
2023-02-26T09:20:14.747Z,231.18
2023-02-26T09:22:45.085Z,256.23
2023-02-26T09:25:16.278Z,208.82
2023-02-26T09:27:44.863Z,137.60
2023-02-26T09:30:14.429Z,153.10
2023-02-26T09:32:42.942Z,273.67
2023-02-26T09:35:12.268Z,235.52
2023-02-26T09:37:41.292Z,175.77
2023-02-26T09:40:11.926Z,111.78
2023-02-26T09:42:52.607Z,123.22
2023-02-26T09:45:28.447Z,362.63
2023-02-26T09:48:20.693Z,195.60
2023-02-26T09:51:48.607Z,335.42
2023-02-26T09:54:45.867Z,274.50
2023-02-26T09:57:28.805Z,378.73
2023-02-26T10:00:00.653Z,391.88
2023-02-26T10:02:38.689Z,255.93
2023-02-26T10:05:19.017Z,250.80
2023-02-26T10:07:57.145Z,219.98
2023-02-26T10:10:37.970Z,187.98
2023-02-26T10:13:10.061Z,143.77
2023-02-26T10:15:47.418Z,173.35
2023-02-26T10:18:23.496Z,147.77
2023-02-26T10:20:57.999Z,269.83
2023-02-26T10:23:37.898Z,174.02
2023-02-26T10:26:15.660Z,170.55
2023-02-26T10:28:57.135Z,185.32
2023-02-26T10:31:33.426Z,314.20
2023-02-26T10:34:13.379Z,259.92
2023-02-26T10:36:52.946Z,244.15
2023-02-26T10:39:29.625Z,214.18
2023-02-26T10:42:09.994Z,197.35
2023-02-26T10:44:44.160Z,110.13
2023-02-26T10:47:26.362Z,246.88
2023-02-26T10:50:02.936Z,218.27
2023-02-26T10:52:36.929Z,229.77
2023-02-26T10:55:23.824Z,270.23
2023-02-26T10:57:59.618Z,313.38
2023-02-26T11:00:31.851Z,267.85
2023-02-26T11:03:04.818Z,193.43
2023-02-26T11:05:38.452Z,199.20
2023-02-26T11:08:13.219Z,202.70
2023-02-26T11:10:46.352Z,246.40
2023-02-26T11:13:14.930Z,355.40
2023-02-26T11:15:58.860Z,247.43
2023-02-26T11:18:34.505Z,312.80
2023-02-26T11:21:06.036Z,290.60
2023-02-26T11:23:37.156Z,123.95
2023-02-26T11:26:09.848Z,244.13
2023-02-26T11:28:50.740Z,183.15
2023-02-26T11:31:26.672Z,262.35
2023-02-26T11:34:04.028Z,320.90
2023-02-26T11:36:35.141Z,141.50
2023-02-26T11:39:05.090Z,178.88
2023-02-26T11:41:38.940Z,156.15
2023-02-26T11:44:18.245Z,324.85
2023-02-26T11:47:00.346Z,272.73
2023-02-26T11:49:42.140Z,169.40
2023-02-26T11:52:28.105Z,150.95
2023-02-26T11:55:20.054Z,262.70
2023-02-26T11:57:54.257Z,204.23
2023-02-26T12:00:36.270Z,195.40
2023-02-26T12:03:17.732Z,158.88
2023-02-26T12:05:47.719Z,249.80
2023-02-26T12:08:29.250Z,142.10
2023-02-26T12:11:50.929Z,215.63
2023-02-26T12:14:42.327Z,133.07
2023-02-26T12:17:29.273Z,184.93
2023-02-26T12:20:08.138Z,291.75
2023-02-26T12:22:54.905Z,184.75
2023-02-26T12:25:43.532Z,293.25
2023-02-26T12:28:44.960Z,241.20
2023-02-26T12:31:45.362Z,151.35
2023-02-26T12:34:43.317Z,180.45
2023-02-26T12:37:24.669Z,219.43
2023-02-26T12:40:06.425Z,242.68
2023-02-26T12:42:45.723Z,281.15
2023-02-26T12:45:30.373Z,132.35
2023-02-26T12:48:26.110Z,118.70
2023-02-26T12:51:01.215Z,235.05
2023-02-26T12:53:40.127Z,184.80
2023-02-26T12:56:26.227Z,165.82
2023-02-26T12:59:03.951Z,155.07
2023-02-26T13:02:00.364Z,179.95
2023-02-26T13:05:13.112Z,325.17
2023-02-26T13:07:52.398Z,176.15
2023-02-26T13:10:28.126Z,223.27
2023-02-26T13:13:13.110Z,182.65
2023-02-26T13:15:56.444Z,133.90
2023-02-26T13:18:31.887Z,229.27
2023-02-26T13:21:01.742Z,258.17
2023-02-26T13:23:34.615Z,298.27
2023-02-26T13:26:06.586Z,169.70
2023-02-26T13:28:42.384Z,219.30
2023-02-26T13:31:13.946Z,206.52
2023-02-26T13:33:43.708Z,222.15
2023-02-26T13:36:12.506Z,206.13
2023-02-26T13:38:50.858Z,273.27
2023-02-26T13:41:23.164Z,192.02
2023-02-26T13:44:04.013Z,228.52
2023-02-26T13:46:43.346Z,269.38
2023-02-26T13:49:17.738Z,145.70
2023-02-26T13:51:47.626Z,170.32
2023-02-26T13:54:37.142Z,181.95
2023-02-26T13:57:25.736Z,169.93
2023-02-26T14:00:04.875Z,278.48
2023-02-26T14:02:49.140Z,204.63
2023-02-26T14:05:55.258Z,294.77
2023-02-26T14:08:47.298Z,198.63
2023-02-26T14:11:46.229Z,204.50
2023-02-26T14:14:25.679Z,216.57
2023-02-26T14:17:37.661Z,290.88
2023-02-26T14:20:18.794Z,234.55
2023-02-26T14:22:50.784Z,206.38
2023-02-26T14:25:24.098Z,238.73
2023-02-26T14:27:53.130Z,196.38
2023-02-26T14:30:33.467Z,186.52
2023-02-26T14:33:15.135Z,167.23
2023-02-26T14:35:47.988Z,157.27
2023-02-26T14:38:22.332Z,170.82
2023-02-26T14:40:54.649Z,202.50
2023-02-26T14:43:37.465Z,114.65
2023-02-26T14:46:09.748Z,204.90
2023-02-26T14:48:43.154Z,211.32
2023-02-26T14:51:30.520Z,149.95
2023-02-26T14:54:30.221Z,262.85
2023-02-26T14:57:08.525Z,187.68
2023-02-26T15:00:09.866Z,201.77
2023-02-26T15:38:30.606Z,111.97
2023-02-26T15:41:08.195Z,129.85
2023-02-26T15:43:37.262Z,149.55
2023-02-26T15:46:31.386Z,108.68
2023-02-26T15:49:03.372Z,154.00
2023-02-26T15:51:47.863Z,300.08
2023-02-26T15:54:20.889Z,249.60
2023-02-26T15:56:50.078Z,236.50
2023-02-26T15:59:23.307Z,301.02
2023-02-26T16:01:55.803Z,115.10
2023-02-26T16:04:25.010Z,229.82
2023-02-26T16:06:58.139Z,162.40
2023-02-26T16:09:31.440Z,268.67
2023-02-26T16:12:02.714Z,91.32
2023-02-26T16:14:34.615Z,231.48
2023-02-26T16:17:04.257Z,146.98
2023-02-26T16:19:36.073Z,120.45
2023-02-26T16:22:09.252Z,229.07
2023-02-26T16:24:43.933Z,145.65
2023-02-26T16:27:15.105Z,272.67
2023-02-26T16:29:52.126Z,146.88
2023-02-26T16:32:21.500Z,119.38
2023-02-26T16:34:53.464Z,330.63
2023-02-26T16:37:28.518Z,112.55
2023-02-26T16:40:06.645Z,201.10
2023-02-26T16:42:42.471Z,210.15
2023-02-26T16:45:20.787Z,230.15
2023-02-26T16:47:51.604Z,97.47
2023-02-26T16:50:22.128Z,172.05
2023-02-26T16:53:00.479Z,143.70
2023-02-26T16:55:32.081Z,226.40
2023-02-26T16:58:06.145Z,149.95
2023-02-26T17:00:37.671Z,94.53
2023-02-26T17:03:12.083Z,363.15
2023-02-26T17:05:54.963Z,159.45
2023-02-26T17:08:26.887Z,187.13
2023-02-26T17:11:03.272Z,237.90
2023-02-26T17:13:33.954Z,148.90
2023-02-26T17:16:05.113Z,96.75
2023-02-26T17:18:33.711Z,126.05
2023-02-26T17:21:04.281Z,140.50
2023-02-26T17:23:36.898Z,136.10
2023-02-26T17:26:07.422Z,88.45
2023-02-26T17:28:40.429Z,185.57
2023-02-26T17:31:11.095Z,153.05
2023-02-26T17:33:41.446Z,114.63
2023-02-26T17:36:14.990Z,273.02
2023-02-26T17:38:48.545Z,180.18
2023-02-26T17:41:19.754Z,341.70
2023-02-26T17:43:48.691Z,86.85
2023-02-26T17:46:19.795Z,103.07
2023-02-26T17:48:48.326Z,158.15
2023-02-26T17:51:16.976Z,142.05
2023-02-26T17:53:46.718Z,143.65
2023-02-26T17:56:22.350Z,129.02
2023-02-26T17:58:55.417Z,129.40
2023-02-26T18:01:29.589Z,132.52
2023-02-26T18:04:00.757Z,106.85
2023-02-26T18:06:31.236Z,91.15
2023-02-26T18:08:59.597Z,108.57
2023-02-26T18:11:29.452Z,77.70
2023-02-26T18:13:57.918Z,235.82
2023-02-26T18:16:31.705Z,132.77
2023-02-26T18:19:00.477Z,125.93
2023-02-26T18:21:29.064Z,159.55
2023-02-26T18:23:57.915Z,263.83
2023-02-26T18:26:30.781Z,150.57
2023-02-26T18:28:59.581Z,186.75
2023-02-26T18:31:34.298Z,98.95
2023-02-26T18:34:04.478Z,87.68
2023-02-26T18:36:39.628Z,80.50
2023-02-26T18:39:11.598Z,70.07
2023-02-26T18:41:41.355Z,140.68
2023-02-26T18:44:09.748Z,153.48
2023-02-26T18:46:40.250Z,62.97
2023-02-26T18:49:09.636Z,94.28
2023-02-26T18:51:38.111Z,136.95
2023-02-26T18:54:06.839Z,126.00
2023-02-26T18:56:36.281Z,187.73
2023-02-26T18:59:06.161Z,85.97
2023-02-26T19:01:34.767Z,98.45
2023-02-26T19:04:03.240Z,124.78
2023-02-26T19:06:31.592Z,85.95
2023-02-26T19:09:02.683Z,79.90
2023-02-26T19:11:31.265Z,147.48
2023-02-26T19:14:01.162Z,109.20
2023-02-26T19:16:38.065Z,119.15
2023-02-26T19:19:06.751Z,109.47
2023-02-26T19:21:36.350Z,113.90
2023-02-26T19:24:05.784Z,122.07
2023-02-26T19:26:34.768Z,112.30
2023-02-26T19:29:03.482Z,90.63
2023-02-26T19:31:33.628Z,76.30
2023-02-26T19:34:02.068Z,72.32
2023-02-26T19:36:33.289Z,97.88
2023-02-26T19:39:02.303Z,178.50
2023-02-26T19:41:30.854Z,84.57
2023-02-26T19:43:59.356Z,71.63
2023-02-26T19:46:27.986Z,125.32
2023-02-26T19:48:57.799Z,119.78
2023-02-26T19:51:26.624Z,103.72
2023-02-26T19:53:55.142Z,119.20
2023-02-26T19:56:23.553Z,72.32
2023-02-26T19:58:52.123Z,82.90
2023-02-26T20:01:20.665Z,78.05
2023-02-26T20:03:49.232Z,94.43
2023-02-26T20:06:19.088Z,103.63
2023-02-26T20:08:47.819Z,75.82
2023-02-26T20:11:16.248Z,71.03
2023-02-26T20:13:44.782Z,75.82
2023-02-26T20:16:13.606Z,140.63
2023-02-26T20:18:42.709Z,98.25
2023-02-26T20:21:12.423Z,137.65
2023-02-26T20:23:42.651Z,115.15
2023-02-26T20:26:12.694Z,117.40
2023-02-26T20:28:42.138Z,119.45
2023-02-26T20:31:11.125Z,55.00
2023-02-26T20:33:39.758Z,124.35
2023-02-26T20:36:09.419Z,60.95
2023-02-26T20:38:38.367Z,100.75
2023-02-26T20:41:08.656Z,105.25
2023-02-26T20:43:37.355Z,183.00
2023-02-26T20:46:06.173Z,59.03
2023-02-26T20:48:37.262Z,139.45
2023-02-26T20:51:07.457Z,182.20
2023-02-26T20:53:36.407Z,121.45
2023-02-26T20:56:05.108Z,91.65
2023-02-26T20:58:34.975Z,105.45
2023-02-26T21:01:03.372Z,148.98
2023-02-26T21:03:31.888Z,224.20
2023-02-26T21:06:00.283Z,101.75
2023-02-26T21:08:28.689Z,107.45
2023-02-26T21:10:57.070Z,124.45
2023-02-26T21:13:25.533Z,77.15
2023-02-26T21:15:55.292Z,65.93
2023-02-26T21:18:23.786Z,160.50
2023-02-26T21:20:52.262Z,106.63
2023-02-26T21:23:20.942Z,154.23
2023-02-26T21:25:49.402Z,150.90
2023-02-26T21:28:17.995Z,162.13
2023-02-26T21:30:46.401Z,136.27
2023-02-26T21:33:18.413Z,225.95
2023-02-26T21:35:50.018Z,133.35
2023-02-26T21:38:19.410Z,147.30
2023-02-26T21:40:48.071Z,99.93
2023-02-26T21:43:16.736Z,309.63
2023-02-26T21:45:45.533Z,113.18
2023-02-26T21:48:15.464Z,108.82
2023-02-26T21:50:44.161Z,66.85
2023-02-26T21:53:12.576Z,138.00
2023-02-26T21:55:41.105Z,233.13
2023-02-26T21:58:09.504Z,185.40
2023-02-26T22:00:38.054Z,227.40
2023-02-26T22:03:06.495Z,191.00
2023-02-26T22:05:36.624Z,193.97
2023-02-26T22:08:05.514Z,66.27
2023-02-26T22:10:34.025Z,71.57
2023-02-26T22:13:02.380Z,126.67
2023-02-26T22:15:30.744Z,152.27
2023-02-26T22:17:59.068Z,248.57
2023-02-26T22:20:28.157Z,198.37
2023-02-26T22:22:58.263Z,218.57
2023-02-26T22:25:26.676Z,264.43
2023-02-26T22:27:55.077Z,146.50
2023-02-26T22:30:23.612Z,216.43
2023-02-26T22:32:52.145Z,123.60
2023-02-26T22:35:20.601Z,139.25
2023-02-26T22:37:48.940Z,113.18
2023-02-26T22:40:19.250Z,152.13
2023-02-26T22:42:47.669Z,202.37
2023-02-26T22:45:17.249Z,234.50
2023-02-26T22:47:45.906Z,148.87
2023-02-26T22:50:14.635Z,258.47
2023-02-26T22:52:43.401Z,215.60
2023-02-26T22:55:12.594Z,283.67
2023-02-26T22:57:42.436Z,155.57
2023-02-26T23:00:14.801Z,268.70
2023-02-26T23:02:43.485Z,140.73
2023-02-26T23:05:12.136Z,142.70
2023-02-26T23:07:41.474Z,191.97
2023-02-26T23:10:13.196Z,272.27
2023-02-26T23:12:43.287Z,139.83
2023-02-26T23:15:12.645Z,128.67
2023-02-26T23:17:41.299Z,273.37
2023-02-26T23:20:13.768Z,190.60
2023-02-26T23:22:43.962Z,124.32
2023-02-26T23:25:12.886Z,132.90
2023-02-26T23:27:43.120Z,107.80
2023-02-26T23:30:12.480Z,176.83
2023-02-26T23:32:40.955Z,221.87
2023-02-26T23:35:10.221Z,163.43
2023-02-26T23:37:38.593Z,263.37
2023-02-26T23:40:07.991Z,268.67
2023-02-26T23:42:36.428Z,220.10
2023-02-26T23:45:06.908Z,208.10
2023-02-26T23:47:35.259Z,167.05
2023-02-26T23:50:03.695Z,123.38
2023-02-26T23:52:32.245Z,193.97
2023-02-26T23:55:02.407Z,125.03
2023-02-26T23:57:30.875Z,208.20
2023-02-26T23:59:59.322Z,187.03
